Time;durP1;ratioP1;P1;durP2;ratioP2;P2;SDS_P1;SDS_P2;PMS_P1;PMS_P2;Temp;Humidity;BMP_temperature;BMP_pressure;BME280_temperature;BME280_humidity;BME280_pressure;Samples;Min_cycle;Max_cycle;Signal;HPM_P1;HPM_P2
2023/10/10 00:01:05;;;;;;;5.50;5.10;;;18.30;99.90;;;;;;5092681;28;20024;-68
2023/10/10 00:03:32;;;;;;;5.80;5.30;;;18.30;99.90;;;;;;5092643;28;20028;-69
2023/10/10 00:06:08;;;;;;;5.35;4.95;;;18.30;99.90;;;;;;5092647;28;20062;-68
2023/10/10 00:08:40;;;;;;;5.50;5.10;;;18.30;99.90;;;;;;5092599;28;20027;-67
2023/10/10 00:11:10;;;;;;;4.95;4.57;;;18.30;99.90;;;;;;5092425;28;20039;-68
2023/10/10 00:13:42;;;;;;;5.07;4.72;;;18.40;99.90;;;;;;5092403;28;20035;-68
2023/10/10 00:16:26;;;;;;;4.38;4.07;;;18.50;99.90;;;;;;5092458;28;20069;-68
2023/10/10 00:18:55;;;;;;;;;;;18.70;99.90;;;;;;5092905;28;20463;-68
2023/10/10 00:21:28;;;;;;;4.78;4.35;;;18.80;99.90;;;;;;5092442;28;19916;-68
2023/10/10 00:23:55;;;;;;;4.70;4.30;;;18.90;99.90;;;;;;5092347;28;20044;-68
2023/10/10 00:26:25;;;;;;;5.05;4.55;;;18.90;99.90;;;;;;5092200;28;20035;-68
2023/10/10 00:28:55;;;;;;;4.55;4.15;;;18.80;99.90;;;;;;5092058;28;20586;-68
2023/10/10 00:31:26;;;;;;;5.00;4.38;;;18.80;99.90;;;;;;5092216;28;20101;-68
2023/10/10 00:33:54;;;;;;;4.28;3.90;;;18.80;99.90;;;;;;5092215;28;20084;-68
2023/10/10 00:36:21;;;;;;;3.60;3.30;;;18.90;99.90;;;;;;5092013;28;20028;-68
2023/10/10 00:38:49;;;;;;;3.40;3.10;;;18.70;99.90;;;;;;5091681;28;20028;-68
2023/10/10 00:41:15;;;;;;;3.08;2.88;;;18.70;99.90;;;;;;5092070;28;20560;-68
2023/10/10 00:43:44;;;;;;;2.88;2.67;;;18.70;99.90;;;;;;5091809;28;20036;-69
2023/10/10 00:46:11;;;;;;;3.00;2.40;;;18.60;99.90;;;;;;5092305;28;20023;-69
2023/10/10 00:48:40;;;;;;;2.58;2.38;;;18.70;99.90;;;;;;5092071;28;20035;-68
2023/10/10 00:51:10;;;;;;;2.60;2.40;;;18.50;99.90;;;;;;5091775;28;20084;-68
2023/10/10 00:53:39;;;;;;;2.60;2.40;;;18.30;99.90;;;;;;5091749;28;20027;-68
2023/10/10 00:56:06;;;;;;;2.95;2.50;;;18.20;99.90;;;;;;5091918;28;20119;-68
2023/10/10 00:58:38;;;;;;;2.70;2.50;;;18.00;99.90;;;;;;5091697;28;20059;-68
2023/10/10 01:01:19;;;;;;;2.80;2.60;;;17.90;99.90;;;;;;5091593;28;20512;-68
2023/10/10 01:03:50;;;;;;;3.70;2.40;;;17.80;99.90;;;;;;5091420;28;20298;-68
2023/10/10 01:06:25;;;;;;;3.15;2.88;;;17.70;99.90;;;;;;5091869;28;20028;-69
2023/10/10 01:08:58;;;;;;;3.47;3.17;;;17.70;99.90;;;;;;5091686;28;20060;-69
2023/10/10 01:11:24;;;;;;;5.32;3.53;;;17.60;99.90;;;;;;5091760;28;20465;-68
2023/10/10 01:13:56;;;;;;;9.45;3.70;;;17.50;99.90;;;;;;5092016;28;20100;-70
2023/10/10 01:16:24;;;;;;;3.75;3.38;;;17.50;99.90;;;;;;5091592;28;20028;-69
2023/10/10 01:18:54;;;;;;;5.50;3.47;;;17.40;99.90;;;;;;5091274;28;20518;-69
2023/10/10 01:21:30;;;;;;;5.03;3.28;;;17.30;99.90;;;;;;5090440;28;20028;-68
2023/10/10 01:24:06;;;;;;;3.95;3.33;;;17.30;99.90;;;;;;5091432;28;20473;-68
2023/10/10 01:26:37;;;;;;;4.40;3.22;;;17.20;99.90;;;;;;5090272;28;20032;-69
2023/10/10 01:29:13;;;;;;;3.13;2.83;;;17.20;99.90;;;;;;5091302;28;20052;-69
2023/10/10 01:31:42;;;;;;;6.03;3.60;;;17.10;99.90;;;;;;5091320;28;20028;-68
2023/10/10 01:34:23;;;;;;;4.45;3.22;;;17.10;99.90;;;;;;5091382;28;20024;-68
2023/10/10 01:36:50;;;;;;;4.78;3.33;;;16.90;99.90;;;;;;5091056;28;20043;-69
2023/10/10 01:39:28;;;;;;;5.07;2.95;;;16.90;99.90;;;;;;5091462;28;20179;-69
2023/10/10 01:41:54;;;;;;;4.60;3.35;;;16.90;99.90;;;;;;5091417;28;20024;-71
2023/10/10 01:44:22;;;;;;;5.82;3.65;;;16.80;99.90;;;;;;5091828;28;20086;-71
2023/10/10 01:46:50;;;;;;;6.25;3.33;;;16.80;99.90;;;;;;5091151;28;20032;-71
2023/10/10 01:49:28;;;;;;;3.25;2.45;;;16.70;99.90;;;;;;5091742;28;20035;-71
2023/10/10 01:52:03;;;;;;;3.33;2.50;;;16.70;99.90;;;;;;5091598;28;20028;-69
2023/10/10 01:54:53;;;;;;;3.58;3.28;;;16.90;99.90;;;;;;5091409;28;20027;-68
2023/10/10 01:57:21;;;;;;;7.18;3.85;;;17.00;99.90;;;;;;5090829;28;20491;-69
2023/10/10 01:59:48;;;;;;;8.50;4.00;;;17.10;99.90;;;;;;5091138;28;20039;-68
2023/10/10 02:02:16;;;;;;;9.68;4.40;;;17.10;99.90;;;;;;5091227;28;20031;-69
2023/10/10 02:04:43;;;;;;;7.80;4.13;;;17.10;99.90;;;;;;5090734;28;20123;-70
2023/10/10 02:07:15;;;;;;;9.57;3.92;;;17.10;99.90;;;;;;5090918;28;20021;-69
2023/10/10 02:09:43;;;;;;;9.30;3.85;;;17.10;99.90;;;;;;5091457;28;20039;-69
2023/10/10 02:12:15;;;;;;;4.90;3.40;;;17.00;99.90;;;;;;5091844;28;20406;-69
2023/10/10 02:14:44;;;;;;;4.70;2.92;;;16.90;99.90;;;;;;5094810;28;20039;-68
2023/10/10 02:17:24;;;;;;;2.60;2.10;;;16.90;99.90;;;;;;5095163;28;20044;-69
2023/10/10 02:22:53;;;;;;;2.42;2.22;;;16.90;99.90;;;;;;5072381;28;20020;-69
2023/10/10 02:28:09;;;;;;;2.20;2.10;;;16.70;99.90;;;;;;5071959;28;20079;-69
2023/10/10 02:30:36;;;;;;;2.40;2.30;;;16.60;99.90;;;;;;5071787;28;20556;-68
2023/10/10 02:35:56;;;;;;;2.47;2.28;;;16.30;99.90;;;;;;5071931;28;20020;-69
2023/10/10 02:38:33;;;;;;;2.28;2.17;;;16.10;99.90;;;;;;5072203;28;20036;-68
2023/10/10 02:44:08;;;;;;;2.30;2.17;;;16.00;99.90;;;;;;5011887;28;20651;-68
2023/10/10 02:46:39;;;;;;;2.22;2.08;;;15.90;99.90;;;;;;4995355;28;20034;-67
2023/10/10 02:51:55;;;;;;;2.40;2.30;;;15.80;99.90;;;;;;5012213;28;20085;-68
2023/10/10 02:54:34;;;;;;;2.60;2.40;;;15.90;99.90;;;;;;5011791;28;20042;-68
2023/10/10 02:57:26;;;;;;;3.10;2.90;;;15.80;99.90;;;;;;5011789;28;20117;-68
2023/10/10 02:59:45;;;;;;;3.10;2.90;;;15.70;99.90;;;;;;5011932;28;20420;-68
2023/10/10 03:02:20;;;;;;;3.00;2.80;;;15.60;99.90;;;;;;5011323;28;20033;-68
2023/10/10 03:05:05;;;;;;;2.92;2.72;;;15.70;99.90;;;;;;5011531;28;20049;-68
2023/10/10 03:07:32;;;;;;;3.10;2.80;;;15.50;99.90;;;;;;4995096;28;20422;-68
2023/10/10 03:12:41;;;;;;;3.45;3.15;;;15.50;99.90;;;;;;5011427;28;20566;-68
2023/10/10 03:20:33;;;;;;;8.40;4.70;;;15.40;99.90;;;;;;5062440;28;20106;-68
2023/10/10 03:26:04;;;;;;;7.50;4.38;;;15.30;99.90;;;;;;5091981;28;20313;-69
2023/10/10 03:28:34;;;;;;;10.88;5.40;;;15.30;99.90;;;;;;5092962;28;20135;-68
2023/10/10 03:31:24;;;;;;;11.80;5.68;;;15.60;99.90;;;;;;5092849;28;20547;-67
2023/10/10 03:37:10;;;;;;;12.85;7.03;;;15.90;99.90;;;;;;5070375;28;20374;-69
2023/10/10 03:39:49;;;;;;;18.42;8.30;;;15.90;99.90;;;;;;5070298;28;20160;-69
2023/10/10 05:23:52;;;;;;;3.97;3.67;;;15.50;99.90;;;;;;5069056;28;20043;-69
2023/10/10 05:26:19;;;;;;;4.75;4.35;;;15.50;99.90;;;;;;5069417;28;20063;-69
2023/10/10 05:28:46;;;;;;;3.80;3.50;;;15.50;99.90;;;;;;5070765;28;20430;-69
2023/10/10 05:31:12;;;;;;;4.10;3.80;;;15.60;99.90;;;;;;5071300;28;20021;-69
2023/10/10 05:33:38;;;;;;;3.95;3.30;;;15.60;99.90;;;;;;5071165;28;20032;-69
2023/10/10 05:36:06;;;;;;;3.70;3.40;;;15.60;99.90;;;;;;5071222;28;20078;-69
2023/10/10 05:38:35;;;;;;;3.08;2.88;;;15.60;99.90;;;;;;5071423;28;20036;-68
2023/10/10 05:41:03;;;;;;;3.22;2.80;;;15.50;99.90;;;;;;5071090;28;20107;-68
2023/10/10 05:43:33;;;;;;;2.88;2.67;;;15.30;99.90;;;;;;5069361;28;20025;-68
2023/10/10 05:46:00;;;;;;;3.10;2.90;;;15.20;99.90;;;;;;5071984;28;20051;-68
2023/10/10 05:48:26;;;;;;;3.25;2.75;;;15.10;99.90;;;;;;5075196;28;20028;-68
2023/10/10 05:50:53;;;;;;;3.08;2.88;;;14.90;99.90;;;;;;5075404;28;20024;-68
2023/10/10 05:53:20;;;;;;;3.50;3.20;;;14.70;99.90;;;;;;5074770;28;20483;-68
2023/10/10 05:55:53;;;;;;;3.80;3.50;;;14.70;99.90;;;;;;5074813;28;20395;-68
2023/10/10 05:58:20;;;;;;;3.78;3.47;;;14.60;99.90;;;;;;5074777;28;20043;-68
2023/10/10 06:00:48;;;;;;;4.10;3.80;;;14.60;99.90;;;;;;5074949;28;20083;-68
2023/10/10 06:03:16;;;;;;;4.22;3.83;;;14.60;99.90;;;;;;5075047;28;20499;-68
2023/10/10 06:05:48;;;;;;;3.78;3.47;;;14.50;99.90;;;;;;5074667;28;20025;-67
2023/10/10 06:08:16;;;;;;;4.93;3.80;;;14.50;99.90;;;;;;5074313;28;20031;-67
2023/10/10 06:10:42;;;;;;;4.38;3.97;;;14.50;99.90;;;;;;5074204;28;20415;-68
2023/10/10 06:13:10;;;;;;;5.18;3.97;;;14.50;99.90;;;;;;5074313;28;20025;-68
2023/10/10 06:15:36;;;;;;;4.43;3.60;;;14.50;99.90;;;;;;5074767;28;20060;-68
2023/10/10 06:18:11;;;;;;;4.20;3.80;;;14.50;99.90;;;;;;5073095;28;20048;-69
2023/10/10 06:20:41;;;;;;;4.38;3.97;;;14.50;99.90;;;;;;5074289;28;20028;-69
2023/10/10 06:23:08;;;;;;;4.43;4.03;;;14.50;99.90;;;;;;5074005;28;20031;-70
2023/10/10 06:25:36;;;;;;;4.93;4.07;;;14.50;99.90;;;;;;5091697;28;20032;-67
2023/10/10 06:28:05;;;;;;;4.65;4.25;;;14.50;99.90;;;;;;5094440;28;20525;-70
2023/10/10 06:30:37;;;;;;;4.85;3.85;;;14.50;99.90;;;;;;5094371;28;20028;-70
2023/10/10 06:33:15;;;;;;;5.10;3.47;;;14.50;99.90;;;;;;5094426;28;20475;-70
2023/10/10 06:35:51;;;;;;;6.50;4.20;;;14.50;99.90;;;;;;5094415;28;20028;-71
2023/10/10 06:38:17;;;;;;;4.95;4.45;;;14.60;99.90;;;;;;5093728;28;20035;-71
2023/10/10 06:40:52;;;;;;;4.68;4.18;;;14.70;99.90;;;;;;5093204;28;20028;-71
2023/10/10 06:43:19;;;;;;;5.13;4.50;;;14.70;99.90;;;;;;5094050;28;20115;-70
2023/10/10 06:45:52;;;;;;;5.90;4.70;;;14.90;99.90;;;;;;5093952;28;20065;-70
2023/10/10 06:48:21;;;;;;;15.90;6.05;;;15.10;99.90;;;;;;5093996;28;20055;-68
2023/10/10 06:50:49;;;;;;;5.88;4.90;;;15.40;99.90;;;;;;5093881;28;20502;-69
2023/10/10 06:53:34;;;;;;;6.68;5.20;;;15.60;99.90;;;;;;5094234;28;20213;-67
2023/10/10 06:56:14;;;;;;;6.07;4.80;;;15.80;99.90;;;;;;5093551;28;20419;-68
2023/10/10 06:58:49;;;;;;;5.15;4.00;;;15.70;99.90;;;;;;5093244;28;20448;-68
2023/10/10 07:01:19;;;;;;;5.63;4.22;;;15.90;99.90;;;;;;5093610;28;20020;-68
2023/10/10 07:03:54;;;;;;;4.20;3.88;;;15.80;99.90;;;;;;5093688;28;20032;-68
2023/10/10 07:06:21;;;;;;;6.10;4.93;;;15.90;99.90;;;;;;5093359;28;20024;-69
2023/10/10 07:09:00;;;;;;;5.93;4.90;;;15.90;99.90;;;;;;5093669;28;20028;-68
2023/10/10 07:11:25;;;;;;;9.35;6.68;;;15.80;99.90;;;;;;5093028;28;20028;-68
2023/10/10 07:13:58;;;;;;;7.60;5.90;;;15.90;99.90;;;;;;5093915;28;20043;-69
2023/10/10 07:16:24;;;;;;;7.82;5.45;;;15.80;99.90;;;;;;5093420;28;20050;-69
2023/10/10 07:18:56;;;;;;;7.90;5.68;;;15.70;99.90;;;;;;5093420;28;20120;-68
2023/10/10 07:21:36;;;;;;;9.57;6.10;;;15.60;99.90;;;;;;5092085;28;20498;-68
2023/10/10 07:24:15;;;;;;;9.82;6.22;;;15.50;99.90;;;;;;5092772;28;20050;-68
2023/10/10 07:26:41;;;;;;;22.60;7.35;;;15.50;99.90;;;;;;5093730;28;20433;-68
2023/10/10 07:32:16;;;;;;;14.10;7.22;;;15.50;99.90;;;;;;5070578;28;20087;-68
2023/10/10 07:34:51;;;;;;;12.07;7.10;;;15.60;99.90;;;;;;5070433;28;20029;-68
2023/10/10 07:37:17;;;;;;;10.05;6.57;;;15.50;99.90;;;;;;5070381;28;20443;-68
2023/10/10 07:39:55;;;;;;;9.75;6.32;;;15.50;99.90;;;;;;5070441;28;20036;-67
2023/10/10 07:42:29;;;;;;;11.50;6.25;;;15.50;99.90;;;;;;5070430;28;20078;-67
2023/10/10 07:44:55;;;;;;;10.88;5.90;;;15.50;99.90;;;;;;5070146;28;20036;-67
2023/10/10 07:47:25;;;;;;;9.10;6.00;;;15.50;99.90;;;;;;5070437;28;20024;-67
2023/10/10 07:50:00;;;;;;;10.20;5.85;;;15.60;99.90;;;;;;5070196;28;20049;-68
2023/10/10 07:52:26;;;;;;;7.05;5.32;;;15.60;99.90;;;;;;5070066;28;20541;-67
2023/10/10 07:54:53;;;;;;;7.63;4.85;;;15.60;99.90;;;;;;5070148;28;20033;-67
2023/10/10 07:57:29;;;;;;;6.82;5.00;;;15.90;99.90;;;;;;5070170;28;20480;-66
2023/10/10 07:59:57;;;;;;;6.10;4.85;;;15.90;99.90;;;;;;5070183;28;20086;-67
2023/10/10 08:05:10;;;;;;;6.10;4.88;;;15.70;99.90;;;;;;5069838;28;20433;-67
2023/10/10 08:07:36;;;;;;;5.80;4.70;;;15.70;99.90;;;;;;5072536;28;20032;-67
2023/10/10 08:10:29;;;;;;;6.35;4.80;;;15.60;99.90;;;;;;5090327;28;20093;-67
2023/10/10 08:12:56;;;;;;;8.80;4.90;;;15.80;99.90;;;;;;5092369;28;20059;-67
2023/10/10 08:15:25;;;;;;;4.57;3.70;;;16.00;99.90;;;;;;5092333;28;20035;-67
2023/10/10 08:17:55;;;;;;;6.18;3.88;;;16.40;99.90;;;;;;5092704;28;20587;-67
2023/10/10 08:21:22;;;;;;;4.50;4.10;;;16.40;99.90;;;;;;5092011;28;20036;-67
2023/10/10 08:23:17;;;;;;;5.05;3.42;;;16.40;99.90;;;;;;5086702;28;20032;-67
2023/10/10 08:25:43;;;;;;;5.55;3.80;;;16.30;99.90;;;;;;5092431;28;20032;-67
2023/10/10 08:28:09;;;;;;;5.18;4.32;;;16.50;99.90;;;;;;5091468;28;20530;-67
2023/10/10 08:30:34;;;;;;;5.13;4.28;;;16.60;99.90;;;;;;5092329;28;20447;-67
2023/10/10 08:33:01;;;;;;;5.35;3.58;;;16.90;99.90;;;;;;5091698;28;20020;-67
2023/10/10 08:35:30;;;;;;;6.38;3.95;;;17.10;99.90;;;;;;5091396;28;20502;-67
2023/10/10 08:37:58;;;;;;;4.10;3.70;;;17.30;99.90;;;;;;5091875;28;20102;-68
2023/10/10 08:40:33;;;;;;;4.20;3.70;;;17.60;99.90;;;;;;5091814;28;20122;-68
2023/10/10 08:43:02;;;;;;;7.22;3.95;;;17.80;99.90;;;;;;5091921;28;20027;-68
2023/10/10 08:45:39;;;;;;;6.80;4.10;;;17.90;99.90;;;;;;5091888;28;20406;-68
2023/10/10 08:48:12;;;;;;;4.65;4.00;;;17.90;99.90;;;;;;5091598;28;20028;-68
2023/10/10 08:50:44;;;;;;;5.70;4.43;;;18.00;99.90;;;;;;5091484;28;20028;-68
2023/10/10 08:53:13;;;;;;;5.18;3.75;;;18.00;99.90;;;;;;5090796;28;20442;-68
2023/10/10 08:55:43;;;;;;;4.85;3.60;;;18.20;99.90;;;;;;5091566;28;20023;-74
2023/10/10 08:58:12;;;;;;;4.13;3.78;;;18.40;99.90;;;;;;5091602;28;20073;-73
2023/10/10 09:00:38;;;;;;;6.22;4.53;;;18.20;99.90;;;;;;5091415;28;20028;-73
2023/10/10 09:03:07;;;;;;;6.95;3.97;;;18.10;99.90;;;;;;5091385;28;20024;-73
2023/10/10 09:05:33;;;;;;;11.35;4.07;;;18.10;99.90;;;;;;5091155;28;20410;-73
2023/10/10 09:08:26;;;;;;;4.40;4.00;;;18.20;99.90;;;;;;5091589;28;20024;-74
2023/10/10 09:10:53;;;;;;;8.20;5.30;;;18.20;99.90;;;;;;5091010;28;20412;-73
2023/10/10 09:13:19;;;;;;;;;;;18.40;99.90;;;;;;5091739;28;20031;-74
2023/10/10 09:15:55;;;;;;;6.00;4.65;;;18.40;99.90;;;;;;5091601;28;19908;-73
2023/10/10 09:18:25;;;;;;;6.72;4.55;;;18.40;99.90;;;;;;5091265;28;20024;-74
2023/10/10 09:20:53;;;;;;;8.35;4.85;;;18.50;99.90;;;;;;5090599;28;20028;-73
2023/10/10 09:23:27;;;;;;;5.55;4.20;;;18.50;99.90;;;;;;5091208;28;20039;-73
2023/10/10 09:26:12;;;;;;;8.48;5.22;;;18.60;99.90;;;;;;5091331;28;20024;-73
2023/10/10 09:28:44;;;;;;;5.75;4.93;;;18.70;99.90;;;;;;5090995;28;20058;-73
2023/10/10 09:31:20;;;;;;;8.77;5.00;;;18.60;99.90;;;;;;5091123;28;20528;-73
2023/10/10 09:33:47;;;;;;;7.22;4.47;;;18.60;99.90;;;;;;5091041;28;20071;-73
2023/10/10 09:36:19;;;;;;;5.63;4.18;;;18.60;99.90;;;;;;5091076;28;20035;-74
2023/10/10 09:38:47;;;;;;;6.95;4.38;;;18.70;99.90;;;;;;5091068;28;20101;-74
2023/10/10 09:55:39;;;;;;;6.50;4.40;;;19.20;99.90;;;;;;5068731;28;20196;-74
2023/10/10 09:58:00;;;;;;;5.18;4.50;;;19.40;99.90;;;;;;5066407;28;20112;-74
2023/10/10 10:03:31;;;;;;;8.40;4.85;;;19.80;99.90;;;;;;5067780;28;20789;-75
2023/10/10 10:09:32;;;;;;;7.00;4.80;;;20.30;99.90;;;;;;5068349;28;20596;-75
2023/10/10 10:12:33;;;;;;;5.90;4.35;;;20.30;99.90;;;;;;5068363;28;20531;-75
2023/10/10 10:15:12;;;;;;;9.18;4.90;;;20.40;99.90;;;;;;5068022;28;20056;-75
2023/10/10 10:17:53;;;;;;;8.23;5.30;;;20.70;99.90;;;;;;5068051;28;20036;-75
2023/10/10 10:21:04;;;;;;;8.40;5.07;;;20.80;99.90;;;;;;5070943;28;20028;-76
2023/10/10 10:23:33;;;;;;;7.28;4.88;;;21.00;99.90;;;;;;5089582;28;20083;-75
2023/10/10 10:26:12;;;;;;;6.32;4.95;;;21.00;99.90;;;;;;5070522;28;20104;-76
2023/10/10 10:28:41;;;;;;;11.13;5.25;;;21.00;99.90;;;;;;5070589;28;20395;-75
2023/10/10 10:31:16;;;;;;;7.97;5.40;;;21.10;99.90;;;;;;5070502;28;20052;-76
2023/10/10 10:34:05;;;;;;;6.57;5.05;;;21.20;99.90;;;;;;5072250;28;20059;-76
2023/10/10 10:36:43;;;;;;;6.95;5.30;;;21.40;99.90;;;;;;5074491;28;20095;-75
2023/10/10 10:39:26;;;;;;;7.38;6.03;;;21.20;99.90;;;;;;5074174;28;20066;-75
2023/10/10 10:42:00;;;;;;;8.40;6.53;;;20.90;99.90;;;;;;5073847;28;20086;-75
2023/10/10 10:44:44;;;;;;;8.13;6.28;;;20.60;99.90;;;;;;5073750;28;20059;-75
2023/10/10 10:47:31;;;;;;;9.10;7.50;;;20.50;99.90;;;;;;5073703;28;20021;-75
2023/10/10 10:49:57;;;;;;;10.43;9.30;;;20.40;99.90;;;;;;5073567;28;20032;-75
2023/10/10 10:52:43;;;;;;;11.93;10.73;;;20.50;99.90;;;;;;5073703;28;20024;-75
2023/10/10 10:55:20;;;;;;;14.15;11.82;;;20.50;99.90;;;;;;5073644;28;20026;-76
2023/10/10 10:57:48;;;;;;;12.73;11.40;;;20.60;99.90;;;;;;5073580;28;20449;-76
2023/10/10 11:00:29;;;;;;;13.77;11.02;;;20.70;99.90;;;;;;5073636;28;20558;-76
2023/10/10 11:02:59;;;;;;;15.38;10.80;;;20.70;99.90;;;;;;5073477;28;20507;-76
2023/10/10 11:05:28;;;;;;;11.60;9.60;;;20.80;99.90;;;;;;5073869;28;20043;-76
2023/10/10 11:08:06;;;;;;;9.85;8.90;;;20.80;99.90;;;;;;5073738;28;20028;-76
2023/10/10 11:10:36;;;;;;;10.90;8.27;;;21.00;99.90;;;;;;5074129;28;20039;-76
2023/10/10 11:13:07;;;;;;;11.13;8.48;;;21.00;99.90;;;;;;5073557;28;20052;-75
2023/10/10 11:15:39;;;;;;;8.82;7.80;;;21.00;99.90;;;;;;5073279;28;20059;-75
2023/10/10 11:18:08;;;;;;;9.48;6.93;;;21.10;99.90;;;;;;5073280;28;20082;-76
2023/10/10 11:21:06;;;;;;;9.75;7.03;;;21.10;99.90;;;;;;5073350;28;20085;-75
2023/10/10 11:23:32;;;;;;;8.85;6.45;;;21.10;99.90;;;;;;5072801;28;20045;-76
2023/10/10 11:26:00;;;;;;;7.18;6.15;;;21.20;99.90;;;;;;5073300;28;20029;-75
2023/10/10 11:28:47;;;;;;;6.30;5.70;;;21.30;99.90;;;;;;5072914;28;20565;-75
2023/10/10 11:31:14;;;;;;;6.93;6.15;;;21.40;99.90;;;;;;5072728;28;20039;-75
2023/10/10 11:33:49;;;;;;;6.97;6.05;;;21.30;99.90;;;;;;5073268;28;20112;-76
2023/10/10 11:36:22;;;;;;;8.80;6.20;;;21.30;99.90;;;;;;5073017;28;20086;-75
2023/10/10 11:38:55;;;;;;;5.82;5.32;;;21.40;99.90;;;;;;5073276;28;20540;-76
2023/10/10 11:41:30;;;;;;;6.28;5.60;;;21.60;99.90;;;;;;5072970;28;20559;-76
2023/10/10 11:44:05;;;;;;;7.75;5.40;;;21.80;99.90;;;;;;5073092;28;20051;-75
2023/10/10 11:46:33;;;;;;;6.00;5.45;;;21.90;99.90;;;;;;5072788;28;20036;-74
2023/10/10 11:49:00;;;;;;;6.93;5.70;;;22.00;99.90;;;;;;5072618;28;20036;-77
2023/10/10 11:51:38;;;;;;;9.23;7.25;;;22.10;99.90;;;;;;5072549;28;20029;-76
2023/10/10 11:54:04;;;;;;;8.88;6.97;;;22.10;99.90;;;;;;5073035;28;20097;-77
2023/10/10 11:56:34;;;;;;;12.15;7.38;;;22.10;99.90;;;;;;5072471;28;20495;-77
2023/10/10 11:59:14;;;;;;;8.35;6.45;;;22.20;99.90;;;;;;5072554;28;20411;-77
2023/10/10 12:02:17;;;;;;;7.18;5.90;;;22.20;99.90;;;;;;5072475;28;20491;-77
2023/10/10 12:04:37;;;;;;;6.97;5.15;;;22.20;99.90;;;;;;5072321;28;20044;-77
2023/10/10 12:07:04;;;;;;;6.72;5.40;;;22.20;99.90;;;;;;5072370;28;20440;-78
2023/10/10 12:09:30;;;;;;;6.47;5.07;;;22.20;99.90;;;;;;5073209;28;20461;-77
2023/10/10 12:11:59;;;;;;;5.43;4.53;;;22.30;99.90;;;;;;5072243;28;20104;-77
2023/10/10 12:14:31;;;;;;;7.25;4.88;;;22.50;99.90;;;;;;5072303;28;20043;-77
2023/10/10 12:16:58;;;;;;;7.25;5.20;;;22.50;99.90;;;;;;5072678;28;20021;-76
2023/10/10 12:19:36;;;;;;;5.97;5.30;;;22.50;99.90;;;;;;5072738;28;20032;-76
2023/10/10 12:22:08;;;;;;;6.40;4.90;;;22.50;99.90;;;;;;5072341;28;20030;-76
2023/10/10 12:24:35;;;;;;;5.67;4.90;;;22.50;99.90;;;;;;5082394;28;20498;-76
2023/10/10 12:27:01;;;;;;;7.45;5.18;;;22.50;99.90;;;;;;5092255;28;20486;-76
2023/10/10 12:29:30;;;;;;;6.03;4.90;;;22.50;99.90;;;;;;5091456;28;20044;-75
2023/10/10 12:31:56;;;;;;;5.82;5.15;;;22.50;99.90;;;;;;5092565;28;20032;-75
2023/10/10 12:34:24;;;;;;;7.15;5.20;;;22.50;99.90;;;;;;5092369;28;20027;-75
2023/10/10 12:36:59;;;;;;;6.50;4.85;;;22.50;99.90;;;;;;5092175;28;20555;-75
2023/10/10 12:39:27;;;;;;;5.30;4.80;;;22.50;99.90;;;;;;5091927;28;20103;-75
2023/10/10 12:41:54;;;;;;;6.25;4.53;;;22.50;99.90;;;;;;5092276;28;20030;-75
2023/10/10 12:44:23;;;;;;;6.75;4.90;;;22.60;99.90;;;;;;5091634;28;20495;-76
2023/10/10 12:46:54;;;;;;;5.82;5.00;;;22.60;99.90;;;;;;5092488;28;20020;-77
2023/10/10 12:49:28;;;;;;;6.35;5.43;;;22.70;99.90;;;;;;5092036;28;20474;-77
2023/10/10 12:51:57;;;;;;;7.28;5.22;;;22.70;99.90;;;;;;5092122;28;20444;-77
2023/10/10 12:54:27;;;;;;;6.45;5.10;;;22.90;99.90;;;;;;5092463;28;20044;-77
2023/10/10 12:56:59;;;;;;;5.75;4.78;;;23.00;99.90;;;;;;5091029;28;20106;-75
2023/10/10 12:59:28;;;;;;;5.55;4.25;;;23.00;99.90;;;;;;5091685;28;20028;-77
2023/10/10 13:01:59;;;;;;;5.35;4.43;;;23.00;99.90;;;;;;5092022;28;20024;-76
2023/10/10 13:04:36;;;;;;;5.50;4.00;;;23.20;99.90;;;;;;5092090;28;20441;-77
2023/10/10 13:07:04;;;;;;;5.47;4.03;;;23.30;99.90;;;;;;5092062;28;20032;-76
2023/10/10 13:09:35;;;;;;;5.72;4.03;;;23.50;99.90;;;;;;5091823;28;20020;-76
2023/10/10 13:12:02;;;;;;;5.97;4.10;;;23.60;99.90;;;;;;5091652;28;20036;-76
2023/10/10 13:14:32;;;;;;;6.25;4.40;;;23.70;99.90;;;;;;5091743;28;20028;-77
2023/10/10 13:17:50;;;;;;;5.75;4.32;;;23.80;99.90;;;;;;5091583;28;20023;-77
2023/10/10 13:19:48;;;;;;;7.28;4.13;;;23.80;99.90;;;;;;5088791;28;20671;-77
2023/10/10 13:22:20;;;;;;;4.72;4.13;;;24.00;99.90;;;;;;5091472;28;20050;-77
2023/10/10 13:24:48;;;;;;;7.00;4.45;;;24.10;99.90;;;;;;5091509;28;20044;-78
2023/10/10 13:27:14;;;;;;;6.35;4.00;;;24.30;99.90;;;;;;5091975;28;20048;-77
2023/10/10 13:29:39;;;;;;;9.32;4.70;;;24.40;99.90;;;;;;5091737;28;20067;-77
2023/10/10 13:32:06;;;;;;;5.53;4.20;;;24.60;99.90;;;;;;5092090;28;20028;-78
2023/10/10 13:34:32;;;;;;;8.98;4.43;;;24.70;99.90;;;;;;5091599;28;20032;-79
2023/10/10 13:36:58;;;;;;;6.88;4.13;;;24.80;99.90;;;;;;5092372;28;20025;-78
2023/10/10 13:39:40;;;;;;;8.52;4.40;;;24.90;99.90;;;;;;5091505;28;20028;-79
2023/10/10 13:42:06;;;;;;;6.32;4.40;;;25.00;99.90;;;;;;5091638;28;20016;-78
2023/10/10 13:44:33;;;;;;;6.55;4.40;;;25.10;99.90;;;;;;5091181;28;20406;-78
2023/10/10 13:47:00;;;;;;;5.32;4.13;;;25.10;99.90;;;;;;5091950;28;20031;-78
2023/10/10 13:49:25;;;;;;;8.48;4.45;;;25.20;99.90;;;;;;5091408;28;20059;-78
2023/10/10 13:51:52;;;;;;;7.20;4.65;;;25.40;99.90;;;;;;5092076;28;20052;-79
2023/10/10 13:54:19;;;;;;;8.55;4.45;;;25.50;99.90;;;;;;5091204;28;20028;-78
2023/10/10 13:56:45;;;;;;;6.63;4.40;;;25.40;99.90;;;;;;5090827;28;20044;-78
2023/10/10 13:59:11;;;;;;;7.05;4.65;;;25.40;99.90;;;;;;5092072;28;20043;-77
2023/10/10 14:01:39;;;;;;;7.57;4.70;;;25.30;99.90;;;;;;5091415;28;20028;-77
2023/10/10 14:07:05;;;;;;;7.63;4.80;;;25.30;99.90;;;;;;5068689;28;20032;-76
2023/10/10 14:09:32;;;;;;;7.35;4.57;;;25.20;99.90;;;;;;5071777;28;20044;-78
2023/10/10 14:12:02;;;;;;;7.75;4.82;;;25.30;99.90;;;;;;5072863;28;20078;-77
2023/10/10 14:14:28;;;;;;;7.78;4.72;;;25.30;99.90;;;;;;5072683;28;20097;-77
2023/10/10 14:16:54;;;;;;;9.07;4.90;;;25.30;99.90;;;;;;5072917;28;20038;-76
2023/10/10 14:19:26;;;;;;;7.57;4.25;;;25.40;99.90;;;;;;5073080;28;20033;-78
2023/10/10 14:21:54;;;;;;;8.68;4.47;;;25.30;99.90;;;;;;5072696;28;20124;-77
2023/10/10 14:24:21;;;;;;;11.43;4.63;;;25.30;99.90;;;;;;5071881;28;20438;-76
2023/10/10 14:26:48;;;;;;;8.07;4.55;;;25.50;99.90;;;;;;5072270;28;20035;-76
2023/10/10 14:29:15;;;;;;;6.50;4.80;;;25.60;99.90;;;;;;5072143;28;20418;-77
2023/10/10 14:31:47;;;;;;;7.88;4.85;;;25.60;99.90;;;;;;5071819;28;20469;-77
2023/10/10 14:34:24;;;;;;;9.32;4.68;;;25.60;99.90;;;;;;5071551;28;20034;-77
2023/10/10 14:36:51;;;;;;;8.55;4.65;;;25.70;99.90;;;;;;5072200;28;20487;-76
2023/10/10 14:39:31;;;;;;;7.22;4.88;;;25.50;99.90;;;;;;5071704;28;20032;-76
2023/10/10 14:42:01;;;;;;;8.93;5.13;;;25.60;99.90;;;;;;5072861;28;20064;-76
2023/10/10 14:44:28;;;;;;;9.98;4.97;;;25.60;99.90;;;;;;5074235;28;20086;-76
2023/10/10 14:46:54;;;;;;;8.43;5.13;;;25.70;99.90;;;;;;5073861;28;20502;-76
2023/10/10 14:49:28;;;;;;;7.50;5.38;;;25.70;99.90;;;;;;5073922;28;20483;-76
2023/10/10 14:51:56;;;;;;;12.60;5.07;;;25.60;99.90;;;;;;5074108;28;20562;-76
2023/10/10 14:54:23;;;;;;;7.35;4.90;;;25.60;99.90;;;;;;5073934;28;20024;-77
2023/10/10 14:56:51;;;;;;;8.30;4.85;;;25.70;99.90;;;;;;5074433;28;20031;-76
2023/10/10 14:59:19;;;;;;;7.72;5.32;;;25.90;99.90;;;;;;5073975;28;20029;-76
2023/10/10 15:01:48;;;;;;;5.88;4.68;;;26.00;99.90;;;;;;5074411;28;20051;-76
2023/10/10 15:04:19;;;;;;;7.13;4.78;;;26.00;99.90;;;;;;5073682;28;20036;-76
2023/10/10 15:06:46;;;;;;;7.75;5.05;;;26.00;99.90;;;;;;5073617;28;20455;-76
2023/10/10 15:09:14;;;;;;;9.15;4.97;;;26.00;99.90;;;;;;5072327;28;20544;-76
2023/10/10 15:11:42;;;;;;;9.32;5.10;;;26.10;99.90;;;;;;5073618;28;20020;-76
2023/10/10 15:14:12;;;;;;;9.43;5.18;;;26.10;99.90;;;;;;5073373;28;20058;-76
2023/10/10 15:16:38;;;;;;;8.77;5.00;;;26.10;99.90;;;;;;5073784;28;20078;-77
2023/10/10 15:19:08;;;;;;;8.65;5.43;;;26.20;99.90;;;;;;5073003;28;20020;-76
2023/10/10 15:21:35;;;;;;;7.70;5.10;;;26.20;99.90;;;;;;5073006;28;20028;-77
2023/10/10 15:24:01;;;;;;;7.80;5.10;;;26.10;99.90;;;;;;5078991;28;20028;-76
2023/10/10 15:26:27;;;;;;;8.15;4.85;;;25.90;99.90;;;;;;5093598;28;20035;-76
2023/10/10 15:28:54;;;;;;;7.75;5.35;;;25.80;99.90;;;;;;5094170;28;20040;-77
2023/10/10 15:31:24;;;;;;;9.20;5.30;;;25.80;99.90;;;;;;5093651;28;20410;-76
2023/10/10 15:33:51;;;;;;;9.07;5.28;;;25.90;99.90;;;;;;5093914;28;20028;-77
2023/10/10 15:36:18;;;;;;;10.15;5.18;;;25.80;99.90;;;;;;5092994;28;20500;-76
2023/10/10 15:38:44;;;;;;;9.35;4.93;;;25.80;99.90;;;;;;5093585;28;20028;-76
2023/10/10 15:41:19;;;;;;;8.60;4.95;;;25.70;99.90;;;;;;5093761;28;20024;-75
2023/10/10 15:43:49;;;;;;;9.38;5.13;;;25.70;99.90;;;;;;5093192;28;20412;-75
2023/10/10 15:46:16;;;;;;;9.05;5.00;;;25.80;99.90;;;;;;5093746;28;20027;-76